GMMN Airport Information

Runway Information
Runway 17L Length 12205 ft width 148 ft
Elevation 633 ft Threshold 0 ft Heading 164
Runway 35R Length 12205 ft Width 148 ft
Elevation 656 ft Threshold 0 ft Heading 344
Runway 17R Length 12205 ft width 148 ft
Elevation 636 ft Threshold 0 ft Heading 164
Runway 35L Length 12205 ft Width 148 ft
Elevation 656 ft Threshold 0 ft Heading 344
Airport Frequencies
Type APP Name APP Frequency 121.3 MHZ
Type ATIS Name ATIS Frequency 126.4 MHZ
Type TWR Name TWR Frequency 118.5 MHZ
Airport Navaids
Type VOR-DME Name Casablanca Frequency 114000 KHZ
Airport Weather Information & NOTAM
ADDS - METARS form results

(1327 UTC 21 January 2021)
Data provider http://aviationweather.gov/metar/data/
 
METAR text: GMMN 211300Z 22011KT 9999 BKN020 18/17 Q1024 NOSIG
Conditions at: GMMN (NOUASSEUR/CASABL, MA) observed 1300 UTC 21 January 2021
Temperature: 18.0°C (64°F)
Dewpoint: 17.0°C (63°F) [RH = 94%]
Pressure (altimeter): 30.24 inches Hg (1024.0 mb)
Winds: from the SW (220 degrees) at 13 MPH (11 knots; 5.7 m/s)
Visibility: 6 or more miles (10+ km)
Ceiling: 2000 feet AGL
Clouds: broken clouds at 2000 feet AGL
Weather: no significant weather observed at this time

METAR text: GMMN 211230Z 22010KT 9999 BKN015 18/17 Q1024 NOSIG
Conditions at: GMMN (NOUASSEUR/CASABL, MA) observed 1230 UTC 21 January 2021
Temperature: 18.0°C (64°F)
Dewpoint: 17.0°C (63°F) [RH = 94%]
Pressure (altimeter): 30.24 inches Hg (1024.0 mb)
Winds: from the SW (220 degrees) at 12 MPH (10 knots; 5.1 m/s)
Visibility: 6 or more miles (10+ km)
Ceiling: 1500 feet AGL
Clouds: broken clouds at 1500 feet AGL
Weather: no significant weather observed at this time

Forecast for: GMMN (NOUASSEUR/CASABL, MA)
Text: TAF GMMN 211100Z 2112/2218 22012KT 9999 BKN015
Forecast period: 1200 UTC 21 January 2021 to 1800 UTC 22 January 2021
Forecast type: FROM: standard forecast or significant change
Winds: from the SW (220 degrees) at 14 MPH (12 knots; 6.2 m/s)
Visibility: 6 or more miles (10+ km)
Ceiling: 1500 feet AGL
Clouds: broken clouds at 1500 feet AGL
Weather: no significant weather forecast for this period
Text: TEMPO 2121/2206 1500 BR BKN003
Forecast period: 2100 UTC 21 January 2021 to 0600 UTC 22 January 2021
Forecast type: TEMPORARY: The following changes expected for less than half the time period
Visibility: 0.93 miles (1.50 km)
Ceiling: 300 feet AGL
Clouds: broken clouds at 300 feet AGL
Weather: BR  (mist)
Text: PROB30
Forecast period: 0900 to 1600 UTC 22 January 2021
Forecast type: TEMPORARY: The following changes expected for less than half the time period
Visibility: 2.49 miles (4.01 km)
Ceiling: 1000 feet AGL
Clouds: broken clouds at 1000 feet AGL
broken clouds at 1500 feet AGL
Weather: DZ  (moderate drizzle)